createdAt,value
2019-02-28T00:00:50.818Z,15.36
2019-02-28T00:01:50.766Z,15.46
2019-02-28T00:02:53.917Z,15.49
2019-02-28T00:03:50.624Z,15.51
2019-02-28T00:04:50.553Z,15.62
2019-02-28T00:05:50.483Z,15.62
2019-02-28T00:06:50.403Z,15.64
2019-02-28T00:07:50.552Z,15.65
2019-02-28T00:08:50.988Z,15.62
2019-02-28T00:09:50.202Z,15.60
2019-02-28T00:10:50.135Z,15.56
2019-02-28T00:11:50.063Z,15.59
2019-02-28T00:12:50.008Z,15.59
2019-02-28T00:13:52.381Z,15.71
2019-02-28T00:14:49.860Z,15.69
2019-02-28T00:15:49.786Z,15.71
2019-02-28T00:16:49.708Z,15.74
2019-02-28T00:17:49.638Z,15.59
2019-02-28T00:18:50.561Z,15.54
2019-02-28T00:19:49.496Z,15.62
2019-02-28T00:20:49.449Z,15.62
2019-02-28T00:21:49.369Z,15.64
2019-02-28T00:22:49.421Z,15.71
2019-02-28T00:23:49.225Z,15.72
2019-02-28T00:24:49.163Z,15.71
2019-02-28T00:25:49.104Z,15.78
2019-02-28T00:26:49.024Z,15.69
2019-02-28T00:27:48.957Z,15.78
2019-02-28T00:28:48.874Z,15.84
2019-02-28T00:29:48.803Z,15.90
2019-02-28T00:30:48.734Z,15.83
2019-02-28T00:31:50.039Z,15.82
2019-02-28T00:32:48.607Z,15.71
2019-02-28T00:33:48.534Z,15.65
2019-02-28T00:34:48.468Z,15.64
2019-02-28T00:35:48.393Z,15.62
2019-02-28T00:36:50.348Z,15.65
2019-02-28T00:37:48.248Z,15.65
2019-02-28T00:38:48.191Z,15.72
2019-02-28T00:39:48.119Z,15.69
2019-02-28T00:40:48.038Z,15.72
2019-02-28T00:41:47.968Z,15.74
2019-02-28T00:42:48.087Z,15.72
2019-02-28T00:43:47.832Z,15.64
2019-02-28T00:44:47.773Z,15.60
2019-02-28T00:45:47.697Z,15.56
2019-02-28T00:46:47.633Z,15.53
2019-02-28T00:47:48.363Z,15.47
2019-02-28T00:48:47.482Z,15.50
2019-02-28T00:49:47.412Z,15.51
2019-02-28T00:50:47.341Z,15.41
2019-02-28T00:51:47.272Z,15.41
2019-02-28T00:52:47.214Z,15.44
2019-02-28T00:53:47.152Z,15.47
2019-02-28T00:54:47.064Z,15.59
2019-02-28T00:55:47.080Z,15.53
2019-02-28T00:56:51.557Z,15.54
2019-02-28T00:57:46.885Z,15.53
2019-02-28T00:58:46.799Z,15.50
2019-02-28T00:59:46.730Z,15.39
2019-02-28T01:00:46.644Z,15.28
2019-02-28T01:01:46.867Z,15.17
2019-02-28T01:02:52.032Z,15.32
2019-02-28T01:03:46.439Z,15.29
2019-02-28T01:04:46.373Z,15.25
2019-02-28T01:05:46.307Z,15.36
2019-02-28T01:06:46.235Z,15.28
2019-02-28T01:07:48.142Z,15.25
2019-02-28T01:08:46.092Z,15.34
2019-02-28T01:09:46.018Z,15.34
2019-02-28T01:10:45.961Z,15.43
2019-02-28T01:11:45.892Z,15.34
2019-02-28T01:12:45.811Z,15.31
2019-02-28T01:13:45.736Z,15.35
2019-02-28T01:14:45.668Z,15.38
2019-02-28T01:15:45.792Z,15.32
2019-02-28T01:16:45.538Z,15.38
2019-02-28T01:17:45.478Z,15.35
2019-02-28T01:18:45.384Z,15.51
2019-02-28T01:19:45.316Z,15.38
2019-02-28T01:20:50.032Z,15.29
2019-02-28T01:21:45.190Z,15.32
2019-02-28T01:22:45.135Z,15.39
2019-02-28T01:23:45.051Z,15.34
2019-02-28T01:24:44.978Z,15.27
2019-02-28T01:25:44.902Z,15.31
2019-02-28T01:26:46.690Z,15.31
2019-02-28T01:27:44.770Z,15.31
2019-02-28T01:28:44.691Z,15.41
2019-02-28T01:29:44.624Z,15.51
2019-02-28T01:30:44.564Z,15.49
2019-02-28T01:31:44.480Z,15.54
2019-02-28T01:32:50.093Z,15.57
2019-02-28T01:33:44.352Z,15.53
2019-02-28T01:34:44.277Z,15.50
2019-02-28T01:35:44.213Z,15.53
2019-02-28T01:36:45.913Z,15.56
2019-02-28T01:37:44.064Z,15.59
2019-02-28T01:38:43.994Z,15.56
2019-02-28T01:39:43.920Z,15.49
2019-02-28T01:40:43.868Z,15.47
2019-02-28T01:41:45.148Z,15.56
2019-02-28T01:42:43.720Z,15.60
2019-02-28T01:43:43.640Z,15.54
2019-02-28T01:44:43.587Z,15.49
2019-02-28T01:45:44.330Z,15.39
2019-02-28T01:46:43.445Z,15.31
2019-02-28T01:47:43.374Z,15.34
2019-02-28T01:48:43.292Z,15.34
2019-02-28T01:49:43.218Z,15.32
2019-02-28T01:50:43.153Z,15.43
2019-02-28T01:51:43.087Z,15.36
2019-02-28T01:52:45.845Z,15.49
2019-02-28T01:53:42.958Z,15.51
2019-02-28T01:54:42.891Z,15.46
2019-02-28T01:55:42.812Z,15.46
2019-02-28T01:56:42.732Z,15.51
2019-02-28T01:57:44.296Z,15.41
2019-02-28T01:58:42.603Z,15.39
2019-02-28T01:59:42.529Z,15.44
2019-02-28T02:00:42.462Z,15.34
2019-02-28T02:01:42.418Z,15.20
2019-02-28T02:02:42.315Z,15.19
2019-02-28T02:03:42.249Z,15.10
2019-02-28T02:04:43.148Z,15.07
2019-02-28T02:05:42.115Z,15.10
2019-02-28T02:06:42.043Z,14.98
2019-02-28T02:07:41.981Z,15.10
2019-02-28T02:08:41.896Z,15.13
2019-02-28T02:09:42.638Z,15.20
2019-02-28T02:10:41.764Z,15.09
2019-02-28T02:11:41.686Z,14.98
2019-02-28T02:12:41.619Z,14.94
2019-02-28T02:13:41.557Z,14.95
2019-02-28T02:14:44.901Z,14.98
2019-02-28T02:15:41.406Z,15.07
2019-02-28T02:16:41.343Z,15.06
2019-02-28T02:17:41.272Z,15.07
2019-02-28T02:18:43.407Z,14.98
2019-02-28T02:19:41.135Z,14.81
2019-02-28T02:20:41.054Z,14.86
2019-02-28T02:21:40.998Z,14.78
2019-02-28T02:22:44.438Z,14.77
2019-02-28T02:23:40.852Z,14.70
2019-02-28T02:24:40.770Z,14.75
2019-02-28T02:25:40.705Z,14.75
2019-02-28T02:26:42.321Z,14.73
2019-02-28T02:27:40.560Z,14.80
2019-02-28T02:28:40.502Z,14.80
2019-02-28T02:29:40.434Z,14.70
2019-02-28T02:30:40.355Z,14.81
2019-02-28T02:31:40.279Z,14.75
2019-02-28T02:32:40.223Z,14.65
2019-02-28T02:33:40.148Z,14.69
2019-02-28T02:34:40.077Z,14.68
2019-02-28T02:35:42.756Z,14.54
2019-02-28T02:36:39.926Z,14.47
2019-02-28T02:37:39.897Z,14.54
2019-02-28T02:38:41.593Z,14.54
2019-02-28T02:39:39.713Z,14.61
2019-02-28T02:40:39.653Z,14.60
2019-02-28T02:41:39.584Z,14.65
2019-02-28T02:42:47.475Z,14.60
2019-02-28T02:43:39.441Z,14.64
2019-02-28T02:44:39.383Z,14.47
2019-02-28T02:45:43.411Z,14.55
2019-02-28T02:46:39.233Z,14.58
2019-02-28T02:47:39.161Z,14.50
2019-02-28T02:48:42.276Z,14.51
2019-02-28T02:49:39.004Z,14.61
2019-02-28T02:50:38.933Z,14.68
2019-02-28T02:51:38.863Z,14.65
2019-02-28T02:52:38.804Z,14.72
2019-02-28T02:53:42.178Z,14.61
2019-02-28T02:54:38.657Z,14.75
2019-02-28T02:55:38.594Z,14.77
2019-02-28T02:56:41.874Z,14.72
2019-02-28T02:57:38.459Z,14.81
2019-02-28T02:58:38.369Z,14.81
2019-02-28T02:59:39.447Z,14.83
2019-02-28T03:00:38.239Z,14.72
2019-02-28T03:01:38.174Z,14.72
2019-02-28T03:02:38.083Z,14.70
2019-02-28T03:03:42.692Z,14.65
2019-02-28T03:04:37.952Z,14.64
2019-02-28T03:05:37.881Z,14.51
2019-02-28T03:06:37.823Z,14.52
2019-02-28T03:07:37.743Z,14.50
2019-02-28T03:08:37.657Z,14.58
2019-02-28T03:09:37.591Z,14.68
2019-02-28T03:10:37.517Z,14.64
2019-02-28T03:11:37.456Z,14.65
2019-02-28T03:12:37.391Z,14.61
2019-02-28T03:13:42.125Z,14.61
2019-02-28T03:14:37.249Z,14.47
2019-02-28T03:15:37.171Z,14.47
2019-02-28T03:16:37.095Z,14.54
2019-02-28T03:17:37.016Z,14.51
2019-02-28T03:18:36.960Z,14.46
2019-02-28T03:19:36.919Z,14.47
2019-02-28T03:20:41.068Z,14.47
2019-02-28T03:21:36.732Z,14.47
2019-02-28T03:22:36.670Z,14.51
2019-02-28T03:23:40.118Z,14.47
2019-02-28T03:24:36.547Z,14.40
2019-02-28T03:25:36.464Z,14.43
2019-02-28T03:26:41.407Z,14.45
2019-02-28T03:27:36.306Z,14.33
2019-02-28T03:28:36.252Z,14.42
2019-02-28T03:29:36.176Z,14.46
2019-02-28T03:30:36.103Z,14.43
2019-02-28T03:31:36.035Z,14.45
2019-02-28T03:32:41.927Z,14.46
2019-02-28T03:33:35.885Z,14.52
2019-02-28T03:34:35.862Z,14.42
2019-02-28T03:35:43.581Z,14.45
2019-02-28T03:36:35.689Z,14.43
2019-02-28T03:37:35.643Z,14.40
2019-02-28T03:38:35.521Z,14.33
2019-02-28T03:39:35.449Z,14.43
2019-02-28T03:40:39.714Z,14.39
2019-02-28T03:41:35.327Z,14.39
2019-02-28T03:42:35.254Z,14.51
2019-02-28T03:43:42.705Z,14.55
2019-02-28T03:44:35.109Z,14.54
2019-02-28T03:45:35.392Z,14.51
2019-02-28T03:46:34.952Z,14.51
2019-02-28T03:47:34.879Z,14.52
2019-02-28T03:48:36.207Z,14.43
2019-02-28T03:49:34.748Z,14.35
2019-02-28T03:50:34.700Z,14.42
2019-02-28T03:51:34.592Z,14.35
2019-02-28T03:52:41.802Z,14.42
2019-02-28T03:53:34.459Z,14.51
2019-02-28T03:54:34.391Z,14.51
2019-02-28T03:55:39.834Z,14.51
2019-02-28T03:56:34.237Z,14.50
2019-02-28T03:57:34.168Z,14.50
2019-02-28T03:58:41.610Z,14.54
2019-02-28T03:59:34.037Z,14.40
2019-02-28T04:00:34.347Z,14.33
2019-02-28T04:01:33.877Z,14.29
2019-02-28T04:02:33.806Z,14.39
2019-02-28T04:03:34.815Z,14.24
2019-02-28T04:04:33.683Z,14.25
2019-02-28T04:05:33.610Z,14.32
2019-02-28T04:06:39.595Z,14.36
2019-02-28T04:07:34.647Z,14.40
2019-02-28T04:08:33.412Z,14.24
2019-02-28T04:09:33.321Z,14.25
2019-02-28T04:10:33.271Z,14.39
2019-02-28T04:11:33.195Z,14.37
2019-02-28T04:12:33.099Z,14.35
2019-02-28T04:13:33.025Z,14.42
2019-02-28T04:14:34.249Z,14.32
2019-02-28T04:15:32.892Z,14.40
2019-02-28T04:16:32.820Z,14.33
2019-02-28T04:17:32.749Z,14.32
2019-02-28T04:18:32.678Z,14.29
2019-02-28T04:19:32.611Z,14.33
2019-02-28T04:20:37.383Z,14.25
2019-02-28T04:21:32.453Z,14.25
2019-02-28T04:22:32.400Z,14.24
2019-02-28T04:23:36.184Z,14.33
2019-02-28T04:24:32.261Z,14.25
2019-02-28T04:25:32.177Z,14.22
2019-02-28T04:26:32.099Z,14.27
2019-02-28T04:27:32.028Z,14.14
2019-02-28T04:28:31.983Z,14.17
2019-02-28T04:29:31.893Z,14.12
2019-02-28T04:30:31.816Z,14.18
2019-02-28T04:31:31.742Z,14.27
2019-02-28T04:32:31.686Z,14.24
2019-02-28T04:33:37.577Z,14.24
2019-02-28T04:34:31.542Z,14.25
2019-02-28T04:35:31.467Z,14.35
2019-02-28T04:36:35.472Z,14.33
2019-02-28T04:37:31.323Z,14.32
2019-02-28T04:38:31.259Z,14.25
2019-02-28T04:39:31.184Z,14.32
2019-02-28T04:40:31.102Z,14.35
2019-02-28T04:41:32.984Z,14.24
2019-02-28T04:42:30.954Z,14.28
2019-02-28T04:43:30.886Z,14.28
2019-02-28T04:44:30.829Z,14.28
2019-02-28T04:45:30.752Z,14.29
2019-02-28T04:46:31.876Z,14.35
2019-02-28T04:47:30.612Z,14.27
2019-02-28T04:48:30.562Z,14.29
2019-02-28T04:49:30.453Z,14.28
2019-02-28T04:50:32.057Z,14.18
2019-02-28T04:51:30.314Z,14.21
2019-02-28T04:52:30.254Z,14.28
2019-02-28T04:53:30.183Z,14.18
2019-02-28T04:54:30.098Z,14.24
2019-02-28T04:55:30.721Z,14.29
2019-02-28T04:56:29.968Z,14.27
2019-02-28T04:57:29.894Z,14.27
2019-02-28T04:58:29.832Z,14.28
2019-02-28T04:59:31.624Z,14.35
2019-02-28T05:00:29.682Z,14.22
2019-02-28T05:01:29.599Z,14.24
2019-02-28T05:02:29.529Z,14.21
2019-02-28T05:03:29.457Z,14.20
2019-02-28T05:04:29.402Z,14.27
2019-02-28T05:05:29.325Z,14.18
2019-02-28T05:06:29.257Z,14.22
2019-02-28T05:07:29.620Z,14.29
2019-02-28T05:08:29.100Z,14.28
2019-02-28T05:09:29.035Z,14.24
2019-02-28T05:10:28.970Z,14.21
2019-02-28T05:11:30.738Z,14.21
2019-02-28T05:12:28.814Z,14.17
2019-02-28T05:13:28.745Z,14.10
2019-02-28T05:14:28.679Z,14.18
2019-02-28T05:15:28.609Z,14.18
2019-02-28T05:16:28.548Z,14.15
2019-02-28T05:17:28.466Z,14.17
2019-02-28T05:18:28.405Z,14.15
2019-02-28T05:19:28.333Z,14.21
2019-02-28T05:20:28.241Z,14.03
2019-02-28T05:21:28.171Z,14.04
2019-02-28T05:22:28.646Z,14.02
2019-02-28T05:23:28.031Z,14.15
2019-02-28T05:24:27.970Z,14.24
2019-02-28T05:25:27.902Z,14.17
2019-02-28T05:26:27.827Z,14.22
2019-02-28T05:27:27.747Z,14.15
2019-02-28T05:28:27.687Z,14.22
2019-02-28T05:29:27.618Z,14.03
2019-02-28T05:30:27.544Z,14.07
2019-02-28T05:31:28.061Z,14.06
2019-02-28T05:32:27.392Z,14.03
2019-02-28T05:33:27.322Z,14.04
2019-02-28T05:34:27.261Z,13.97
2019-02-28T05:35:27.188Z,14.02
2019-02-28T05:36:27.107Z,13.95
2019-02-28T05:37:27.031Z,13.95
2019-02-28T05:38:26.978Z,13.92
2019-02-28T05:39:28.274Z,13.97
2019-02-28T05:40:26.831Z,13.88
2019-02-28T05:41:26.758Z,13.91
2019-02-28T05:42:26.673Z,13.92
2019-02-28T05:43:29.288Z,13.95
2019-02-28T05:44:26.540Z,13.91
2019-02-28T05:45:26.472Z,14.00
2019-02-28T05:46:26.399Z,14.09
2019-02-28T05:47:26.333Z,14.04
2019-02-28T05:48:26.254Z,14.17
2019-02-28T05:49:26.175Z,14.12
2019-02-28T05:50:26.099Z,14.10
2019-02-28T05:51:26.031Z,14.02
2019-02-28T05:52:25.974Z,13.96
2019-02-28T05:53:25.900Z,13.87
2019-02-28T05:54:25.829Z,13.87
2019-02-28T05:55:25.925Z,13.81
2019-02-28T05:56:25.684Z,13.69
2019-02-28T05:57:25.603Z,13.81
2019-02-28T05:58:25.539Z,13.79
2019-02-28T05:59:27.215Z,13.71
2019-02-28T06:00:25.387Z,13.82
2019-02-28T06:01:25.319Z,13.79
2019-02-28T06:02:25.648Z,13.77
2019-02-28T06:03:25.176Z,13.79
2019-02-28T06:04:25.113Z,13.78
2019-02-28T06:05:25.045Z,13.87
2019-02-28T06:06:24.965Z,13.85
2019-02-28T06:07:25.912Z,13.84
2019-02-28T06:08:24.814Z,13.95
2019-02-28T06:09:24.743Z,13.89
2019-02-28T06:10:24.900Z,13.95
2019-02-28T06:11:24.603Z,13.91
2019-02-28T06:12:24.542Z,13.92
2019-02-28T06:13:24.475Z,13.91
2019-02-28T06:14:27.585Z,13.95
2019-02-28T06:15:24.315Z,13.95
2019-02-28T06:16:24.252Z,13.96
2019-02-28T06:17:24.178Z,13.95
2019-02-28T06:18:27.046Z,13.99
2019-02-28T06:19:24.036Z,13.95
2019-02-28T06:20:23.955Z,13.88
2019-02-28T06:21:24.300Z,13.91
2019-02-28T06:22:23.811Z,13.87
2019-02-28T06:23:23.769Z,13.84
2019-02-28T06:24:23.680Z,13.85
2019-02-28T06:25:25.497Z,13.69
2019-02-28T06:26:23.584Z,13.77
2019-02-28T06:27:24.290Z,13.71
2019-02-28T06:28:23.379Z,13.70
2019-02-28T06:29:23.309Z,13.73
2019-02-28T06:30:23.245Z,13.71
2019-02-28T06:31:23.178Z,13.79
2019-02-28T06:32:24.676Z,13.79
2019-02-28T06:33:23.023Z,13.69
2019-02-28T06:34:22.957Z,13.82
2019-02-28T06:35:22.879Z,13.85
2019-02-28T06:36:25.682Z,13.67
2019-02-28T06:37:24.046Z,13.73
2019-02-28T06:38:22.664Z,13.70
2019-02-28T06:39:22.603Z,13.70
2019-02-28T06:40:22.528Z,13.70
2019-02-28T06:41:22.465Z,13.59
2019-02-28T06:42:22.387Z,13.59
2019-02-28T06:43:22.312Z,13.59
2019-02-28T06:44:24.213Z,13.55
2019-02-28T06:45:22.169Z,13.60
2019-02-28T06:46:22.095Z,13.55
2019-02-28T06:47:22.027Z,13.59
2019-02-28T06:48:25.760Z,13.49
2019-02-28T06:49:21.875Z,13.55
2019-02-28T06:50:21.807Z,13.54
2019-02-28T06:51:21.735Z,13.49
2019-02-28T06:52:22.291Z,13.46
2019-02-28T06:53:21.590Z,13.51
2019-02-28T06:54:21.556Z,13.48
2019-02-28T06:55:21.502Z,13.48
2019-02-28T06:56:22.532Z,13.46
2019-02-28T06:57:21.313Z,13.45
2019-02-28T06:58:21.223Z,13.49
2019-02-28T06:59:21.151Z,13.60
2019-02-28T07:00:21.088Z,13.51
2019-02-28T07:01:22.697Z,13.39
2019-02-28T07:02:20.933Z,13.42
2019-02-28T07:03:20.866Z,13.39
2019-02-28T07:04:20.805Z,13.38
2019-02-28T07:05:24.811Z,13.42
2019-02-28T07:06:20.668Z,13.33
2019-02-28T07:07:20.590Z,13.36
2019-02-28T07:08:20.733Z,13.46
2019-02-28T07:09:20.431Z,13.38
2019-02-28T07:10:20.386Z,13.49
2019-02-28T07:11:20.802Z,13.51
2019-02-28T07:12:20.228Z,13.51
2019-02-28T07:13:20.158Z,13.62
2019-02-28T07:14:20.092Z,13.59
2019-02-28T07:15:23.306Z,13.62
2019-02-28T07:16:19.939Z,13.55
2019-02-28T07:17:19.863Z,13.60
2019-02-28T07:18:20.035Z,13.57
2019-02-28T07:19:19.723Z,13.60
2019-02-28T07:20:19.642Z,13.66
2019-02-28T07:21:19.569Z,13.62
2019-02-28T07:22:20.643Z,13.63
2019-02-28T07:23:19.425Z,13.63
2019-02-28T07:24:19.399Z,13.63
2019-02-28T07:25:19.327Z,13.64
2019-02-28T07:26:19.652Z,13.57
2019-02-28T07:27:19.154Z,13.55
2019-02-28T07:28:19.067Z,13.59
2019-02-28T07:29:19.016Z,13.64
2019-02-28T07:30:19.356Z,13.67
2019-02-28T07:31:21.756Z,13.79
2019-02-28T07:32:18.800Z,13.82
2019-02-28T07:33:18.724Z,13.84
2019-02-28T07:34:21.954Z,13.69
2019-02-28T07:35:18.603Z,13.66
2019-02-28T07:36:18.528Z,13.66
2019-02-28T07:37:18.975Z,13.79
2019-02-28T07:38:18.376Z,13.85
2019-02-28T07:39:18.304Z,13.81
2019-02-28T07:40:18.207Z,13.82
2019-02-28T07:41:20.212Z,13.85
2019-02-28T07:42:18.072Z,13.91
2019-02-28T07:43:18.006Z,13.92
2019-02-28T07:44:21.087Z,13.82
2019-02-28T07:45:17.848Z,13.91
2019-02-28T07:46:17.784Z,14.07
2019-02-28T07:47:18.393Z,13.99
2019-02-28T07:48:17.646Z,13.91
2019-02-28T07:49:17.579Z,14.02
2019-02-28T07:50:17.495Z,14.04
2019-02-28T07:51:18.395Z,14.04
2019-02-28T07:52:17.361Z,14.07
2019-02-28T07:53:17.308Z,14.17
2019-02-28T07:54:17.221Z,14.25
2019-02-28T07:55:17.155Z,14.15
2019-02-28T07:56:17.066Z,14.18
2019-02-28T07:57:17.889Z,14.28
2019-02-28T07:58:16.925Z,14.24
2019-02-28T07:59:16.856Z,14.22
2019-02-28T08:00:18.150Z,14.25
2019-02-28T08:01:18.373Z,14.22
2019-02-28T08:02:16.682Z,14.27
2019-02-28T08:03:16.582Z,14.22
2019-02-28T08:04:18.579Z,14.28
2019-02-28T08:05:16.431Z,14.21
2019-02-28T08:06:16.367Z,14.15
2019-02-28T08:07:16.297Z,14.32
2019-02-28T08:08:16.213Z,14.29
2019-02-28T08:09:16.143Z,14.24
2019-02-28T08:10:16.672Z,14.29
2019-02-28T08:11:16.017Z,14.27
2019-02-28T08:12:16.005Z,14.27
2019-02-28T08:13:15.874Z,14.39
2019-02-28T08:14:15.785Z,14.46
2019-02-28T08:15:21.159Z,14.55
2019-02-28T08:16:15.666Z,14.50
2019-02-28T08:17:15.598Z,14.45
2019-02-28T08:18:15.825Z,14.50
2019-02-28T08:19:15.448Z,14.54
2019-02-28T08:20:15.364Z,14.51
2019-02-28T08:21:15.303Z,14.50
2019-02-28T08:22:15.239Z,14.43
2019-02-28T08:23:15.171Z,14.50
2019-02-28T08:24:15.082Z,14.52
2019-02-28T08:25:15.010Z,14.65
2019-02-28T08:26:15.520Z,14.60
2019-02-28T08:27:14.869Z,14.72
2019-02-28T08:28:14.808Z,14.62
2019-02-28T08:29:14.744Z,14.61
2019-02-28T08:30:16.310Z,14.60
2019-02-28T08:31:14.604Z,14.65
2019-02-28T08:32:14.521Z,14.77
2019-02-28T08:33:16.393Z,14.89
2019-02-28T08:34:14.379Z,14.83
2019-02-28T08:35:14.349Z,14.75
2019-02-28T08:36:14.249Z,14.80
2019-02-28T08:37:14.175Z,14.86
2019-02-28T08:38:14.097Z,14.77
2019-02-28T08:39:16.322Z,14.86
2019-02-28T08:40:15.596Z,14.86
2019-02-28T08:41:13.901Z,14.95
2019-02-28T08:42:13.830Z,14.75
2019-02-28T08:43:14.139Z,14.81
2019-02-28T08:44:13.671Z,14.73
2019-02-28T08:45:13.605Z,14.75
2019-02-28T08:46:13.845Z,14.91
2019-02-28T08:47:13.474Z,14.84
2019-02-28T08:48:13.462Z,14.89
2019-02-28T08:49:13.328Z,14.84
2019-02-28T08:50:13.275Z,14.94
2019-02-28T08:51:13.186Z,14.77
2019-02-28T08:52:13.145Z,14.83
2019-02-28T08:53:15.369Z,15.01
2019-02-28T08:54:12.989Z,14.95
2019-02-28T08:55:12.906Z,14.80
2019-02-28T08:56:14.088Z,14.86
2019-02-28T08:57:13.047Z,14.95
2019-02-28T08:58:12.705Z,14.94
2019-02-28T08:59:18.512Z,15.02
2019-02-28T09:00:12.552Z,14.99
2019-02-28T09:01:12.486Z,14.96
2019-02-28T09:02:14.516Z,15.07
2019-02-28T09:03:12.362Z,15.09
2019-02-28T09:04:12.299Z,15.14
2019-02-28T09:05:12.223Z,15.13
2019-02-28T09:06:12.145Z,15.14
2019-02-28T09:07:14.844Z,15.23
2019-02-28T09:08:11.998Z,15.16
2019-02-28T09:09:11.931Z,15.25
2019-02-28T09:10:12.723Z,15.34
2019-02-28T09:11:11.828Z,15.38
2019-02-28T09:12:11.722Z,15.36
2019-02-28T09:13:11.653Z,15.47
2019-02-28T09:14:11.584Z,15.57
2019-02-28T09:15:11.522Z,15.51
2019-02-28T09:16:11.451Z,15.53
2019-02-28T09:17:11.387Z,15.60
2019-02-28T09:18:11.319Z,15.60
2019-02-28T09:19:11.242Z,15.60
2019-02-28T09:20:11.253Z,15.74
2019-02-28T09:21:11.100Z,15.67
2019-02-28T09:22:11.033Z,15.75
2019-02-28T09:23:10.958Z,15.62
2019-02-28T09:24:12.725Z,15.75
2019-02-28T09:25:10.836Z,15.87
2019-02-28T09:26:10.756Z,15.83
2019-02-28T09:27:12.229Z,15.90
2019-02-28T09:28:13.170Z,15.87
2019-02-28T09:29:10.556Z,15.89
2019-02-28T09:30:10.490Z,15.90
2019-02-28T09:31:10.421Z,15.78
2019-02-28T09:32:13.547Z,15.83
2019-02-28T09:33:10.272Z,15.93
2019-02-28T09:34:10.202Z,16.00
2019-02-28T09:35:13.852Z,16.00
2019-02-28T09:36:10.076Z,16.02
2019-02-28T09:37:10.009Z,16.04
2019-02-28T09:38:13.424Z,16.02
2019-02-28T09:39:09.877Z,15.93
2019-02-28T09:40:09.796Z,15.89
2019-02-28T09:41:09.724Z,15.96
2019-02-28T09:42:14.801Z,16.04
2019-02-28T09:43:09.601Z,15.94
2019-02-28T09:44:09.518Z,16.09
2019-02-28T09:45:09.457Z,16.07
2019-02-28T09:46:12.549Z,16.14
2019-02-28T09:47:11.710Z,16.17
2019-02-28T09:48:09.255Z,16.20
2019-02-28T09:49:12.871Z,16.09
2019-02-28T09:50:09.104Z,16.07
2019-02-28T09:51:09.040Z,16.21
2019-02-28T09:52:08.980Z,16.17
2019-02-28T09:53:08.915Z,16.12
2019-02-28T09:54:08.867Z,16.21
2019-02-28T09:55:08.777Z,16.20
2019-02-28T09:56:09.346Z,16.14
2019-02-28T09:57:08.630Z,16.17
2019-02-28T09:58:08.571Z,16.23
2019-02-28T09:59:08.503Z,16.17
2019-02-28T10:00:11.633Z,16.35
2019-02-28T10:01:08.359Z,16.33
2019-02-28T10:02:09.405Z,16.45
2019-02-28T10:03:08.216Z,16.41
2019-02-28T10:04:08.167Z,16.46
2019-02-28T10:05:08.091Z,16.46
2019-02-28T10:06:08.026Z,16.52
2019-02-28T10:07:07.951Z,16.63
2019-02-28T10:08:07.874Z,16.58
2019-02-28T10:09:08.761Z,16.70
2019-02-28T10:10:07.740Z,16.73
2019-02-28T10:11:07.671Z,16.70
2019-02-28T10:12:07.949Z,16.76
2019-02-28T10:13:07.549Z,16.70
2019-02-28T10:14:07.469Z,16.86
2019-02-28T10:15:07.544Z,17.00
2019-02-28T10:16:07.344Z,16.96
2019-02-28T10:17:07.282Z,16.82
2019-02-28T10:18:07.204Z,16.85
2019-02-28T10:19:07.141Z,16.86
2019-02-28T10:20:07.055Z,16.88
2019-02-28T10:21:06.990Z,17.00
2019-02-28T10:22:06.922Z,16.98
2019-02-28T10:23:06.854Z,16.96
2019-02-28T10:24:06.799Z,16.97
2019-02-28T10:25:07.186Z,16.94
2019-02-28T10:26:06.664Z,17.04
2019-02-28T10:27:06.598Z,17.22
2019-02-28T10:28:06.516Z,17.12
2019-02-28T10:29:07.459Z,17.26
2019-02-28T10:30:06.395Z,17.19
2019-02-28T10:31:06.317Z,17.21
2019-02-28T10:32:08.965Z,17.06
2019-02-28T10:33:06.174Z,17.11
2019-02-28T10:34:06.107Z,16.83
2019-02-28T10:35:06.040Z,16.88
2019-02-28T10:36:05.979Z,16.93
2019-02-28T10:37:05.929Z,16.97
2019-02-28T10:38:05.847Z,17.04
2019-02-28T10:39:08.705Z,17.21
2019-02-28T10:40:05.698Z,17.12
2019-02-28T10:41:05.632Z,17.12
2019-02-28T10:42:06.101Z,17.08
2019-02-28T10:43:05.498Z,16.98
2019-02-28T10:44:05.441Z,16.96
2019-02-28T10:45:06.584Z,16.96
2019-02-28T10:46:05.288Z,17.03
2019-02-28T10:47:05.218Z,17.03
2019-02-28T10:48:05.167Z,17.18
2019-02-28T10:49:05.100Z,17.08
2019-02-28T10:50:05.035Z,17.16
2019-02-28T10:51:12.008Z,17.15
2019-02-28T10:52:04.886Z,17.15
2019-02-28T10:53:06.070Z,17.19
2019-02-28T10:54:04.799Z,17.33
2019-02-28T10:55:04.692Z,17.43
2019-02-28T10:56:04.612Z,17.15
2019-02-28T10:57:05.935Z,17.21
2019-02-28T10:58:04.476Z,17.16
2019-02-28T10:59:04.410Z,17.18
2019-02-28T11:00:04.353Z,17.11
2019-02-28T11:01:08.020Z,17.08
2019-02-28T11:02:04.202Z,17.14
2019-02-28T11:03:04.149Z,17.22
2019-02-28T11:04:04.472Z,17.21
2019-02-28T11:05:04.012Z,17.28
2019-02-28T11:06:03.941Z,17.28
2019-02-28T11:07:03.876Z,17.30
2019-02-28T11:08:03.804Z,17.23
2019-02-28T11:09:03.722Z,17.31
2019-02-28T11:10:03.660Z,17.41
2019-02-28T11:11:03.586Z,17.34
2019-02-28T11:12:03.537Z,17.30
2019-02-28T11:13:03.476Z,17.43
2019-02-28T11:14:04.248Z,17.48
2019-02-28T11:15:03.316Z,17.41
2019-02-28T11:16:03.250Z,17.48
2019-02-28T11:17:03.197Z,17.43
2019-02-28T11:18:08.502Z,17.46
2019-02-28T11:19:03.053Z,17.38
2019-02-28T11:20:03.016Z,17.44
2019-02-28T11:21:02.913Z,17.51
2019-02-28T11:22:04.906Z,17.52
2019-02-28T11:23:02.788Z,17.43
2019-02-28T11:24:02.723Z,17.48
2019-02-28T11:25:02.646Z,17.46
2019-02-28T11:26:02.600Z,17.49
2019-02-28T11:27:02.502Z,17.49
2019-02-28T11:28:02.437Z,17.51
2019-02-28T11:29:03.191Z,17.54
2019-02-28T11:30:02.304Z,17.59
2019-02-28T11:31:02.240Z,17.54
2019-02-28T11:32:02.183Z,17.51
2019-02-28T11:33:04.332Z,17.41
2019-02-28T11:34:02.024Z,17.41
2019-02-28T11:35:01.981Z,17.56
2019-02-28T11:36:01.899Z,17.55
2019-02-28T11:37:01.838Z,17.58
2019-02-28T11:38:01.772Z,17.68
2019-02-28T11:39:01.687Z,17.64
2019-02-28T11:40:01.617Z,17.64
2019-02-28T11:41:01.553Z,17.63
2019-02-28T11:42:01.479Z,17.51
2019-02-28T11:43:02.773Z,17.48
2019-02-28T11:44:01.380Z,17.46
2019-02-28T11:45:01.287Z,17.48
2019-02-28T11:46:03.127Z,17.49
2019-02-28T11:47:01.141Z,17.52
2019-02-28T11:48:01.074Z,17.58
2019-02-28T11:49:01.017Z,17.66
2019-02-28T11:50:04.056Z,17.56
2019-02-28T11:51:00.868Z,17.56
2019-02-28T11:52:00.800Z,17.54
2019-02-28T11:53:04.865Z,17.58
2019-02-28T11:54:00.660Z,17.59
2019-02-28T11:55:00.604Z,17.58
2019-02-28T11:56:00.538Z,17.58
2019-02-28T11:57:03.029Z,17.56
2019-02-28T11:58:00.390Z,17.63
2019-02-28T11:59:00.333Z,17.62
2019-02-28T12:00:00.570Z,17.55
2019-02-28T12:01:02.196Z,17.63
2019-02-28T12:02:00.131Z,17.70
2019-02-28T12:03:00.959Z,17.78
2019-02-28T12:03:59.985Z,17.70
2019-02-28T12:04:59.919Z,17.75
2019-02-28T12:05:59.855Z,17.74
2019-02-28T12:07:00.874Z,17.86
2019-02-28T12:07:59.713Z,17.87
2019-02-28T12:08:59.640Z,17.81
2019-02-28T12:09:59.568Z,17.89
2019-02-28T12:11:01.948Z,17.87
2019-02-28T12:11:59.451Z,17.93
2019-02-28T12:12:59.380Z,17.75
2019-02-28T12:13:59.348Z,17.79
2019-02-28T12:15:02.562Z,17.87
2019-02-28T12:15:59.165Z,17.86
2019-02-28T12:16:59.101Z,17.79
2019-02-28T12:18:03.593Z,17.89
2019-02-28T12:18:58.968Z,17.87
2019-02-28T12:19:58.901Z,17.87
2019-02-28T12:21:02.091Z,17.86
2019-02-28T12:22:00.120Z,17.92
2019-02-28T12:22:58.705Z,17.97
2019-02-28T12:24:00.556Z,17.92
2019-02-28T12:24:58.560Z,17.95
2019-02-28T12:25:58.513Z,17.95
2019-02-28T12:26:58.420Z,17.93
2019-02-28T12:27:59.319Z,17.95
2019-02-28T12:28:58.291Z,17.93
2019-02-28T12:29:58.244Z,17.96
2019-02-28T12:31:00.275Z,17.89
2019-02-28T12:31:58.083Z,17.92
2019-02-28T12:32:58.007Z,17.92
2019-02-28T12:33:57.939Z,17.93
2019-02-28T12:35:01.330Z,18.05
2019-02-28T12:35:57.814Z,18.03
2019-02-28T12:36:59.809Z,17.95
2019-02-28T12:37:57.671Z,18.02
2019-02-28T12:38:59.417Z,18.08
2019-02-28T12:39:57.542Z,18.07
2019-02-28T12:40:57.469Z,18.07
2019-02-28T12:41:59.572Z,17.95
2019-02-28T12:42:57.363Z,18.07
2019-02-28T12:43:57.262Z,17.96
2019-02-28T12:44:57.195Z,18.18
2019-02-28T12:46:00.079Z,18.18
2019-02-28T12:46:57.067Z,17.99
2019-02-28T12:47:57.000Z,18.02
2019-02-28T12:48:56.934Z,18.00
2019-02-28T12:49:57.258Z,18.02
2019-02-28T12:50:56.781Z,18.05
2019-02-28T12:51:56.715Z,18.12